sensor_id;sensor_type;location;lat;lon;timestamp;P1;durP1;ratioP1;P2;durP2;ratioP2
61085;SDS011;46967;48.876;2.136;2023-02-15T00:00:05;44.47;;;25.45;;
61085;SDS011;46967;48.876;2.136;2023-02-15T00:02:33;47.25;;;24.95;;
61085;SDS011;46967;48.876;2.136;2023-02-15T00:04:58;44.08;;;25.08;;
61085;SDS011;46967;48.876;2.136;2023-02-15T00:07:23;48.00;;;25.48;;
61085;SDS011;46967;48.876;2.136;2023-02-15T00:09:49;41.63;;;24.67;;
61085;SDS011;46967;48.876;2.136;2023-02-15T00:12:15;41.45;;;24.10;;
61085;SDS011;46967;48.876;2.136;2023-02-15T00:14:41;41.67;;;24.38;;
61085;SDS011;46967;48.876;2.136;2023-02-15T00:17:07;43.05;;;24.95;;
61085;SDS011;46967;48.876;2.136;2023-02-15T00:19:32;41.75;;;23.95;;
61085;SDS011;46967;48.876;2.136;2023-02-15T00:21:58;41.95;;;24.35;;
61085;SDS011;46967;48.876;2.136;2023-02-15T00:24:23;40.70;;;24.13;;
61085;SDS011;46967;48.876;2.136;2023-02-15T00:26:49;41.85;;;23.80;;
61085;SDS011;46967;48.876;2.136;2023-02-15T00:29:15;44.83;;;25.08;;
61085;SDS011;46967;48.876;2.136;2023-02-15T00:31:41;44.17;;;23.58;;
61085;SDS011;46967;48.876;2.136;2023-02-15T00:34:10;41.45;;;23.88;;
61085;SDS011;46967;48.876;2.136;2023-02-15T00:36:37;43.55;;;23.80;;
61085;SDS011;46967;48.876;2.136;2023-02-15T00:39:03;42.45;;;24.83;;
61085;SDS011;46967;48.876;2.136;2023-02-15T00:41:32;42.75;;;23.15;;
61085;SDS011;46967;48.876;2.136;2023-02-15T00:43:58;41.92;;;24.40;;
61085;SDS011;46967;48.876;2.136;2023-02-15T00:46:23;46.65;;;25.17;;
61085;SDS011;46967;48.876;2.136;2023-02-15T00:48:49;41.28;;;24.42;;
61085;SDS011;46967;48.876;2.136;2023-02-15T00:51:14;45.65;;;25.17;;
61085;SDS011;46967;48.876;2.136;2023-02-15T00:53:40;44.08;;;24.75;;
61085;SDS011;46967;48.876;2.136;2023-02-15T00:56:05;49.10;;;25.40;;
61085;SDS011;46967;48.876;2.136;2023-02-15T00:58:30;39.60;;;23.38;;
61085;SDS011;46967;48.876;2.136;2023-02-15T01:01:02;44.25;;;24.17;;
61085;SDS011;46967;48.876;2.136;2023-02-15T01:03:32;40.20;;;23.67;;
61085;SDS011;46967;48.876;2.136;2023-02-15T01:05:58;46.08;;;26.10;;
61085;SDS011;46967;48.876;2.136;2023-02-15T01:08:24;41.67;;;23.38;;
61085;SDS011;46967;48.876;2.136;2023-02-15T01:10:50;44.45;;;24.27;;
61085;SDS011;46967;48.876;2.136;2023-02-15T01:13:15;45.28;;;24.58;;
61085;SDS011;46967;48.876;2.136;2023-02-15T01:15:41;39.22;;;23.88;;
61085;SDS011;46967;48.876;2.136;2023-02-15T01:18:07;37.15;;;23.48;;
61085;SDS011;46967;48.876;2.136;2023-02-15T01:20:34;40.33;;;23.13;;
61085;SDS011;46967;48.876;2.136;2023-02-15T01:23:01;39.30;;;22.83;;
61085;SDS011;46967;48.876;2.136;2023-02-15T01:25:27;41.83;;;23.35;;
61085;SDS011;46967;48.876;2.136;2023-02-15T01:27:52;40.85;;;22.67;;
61085;SDS011;46967;48.876;2.136;2023-02-15T01:30:18;41.65;;;22.85;;
61085;SDS011;46967;48.876;2.136;2023-02-15T01:32:43;38.92;;;22.98;;
61085;SDS011;46967;48.876;2.136;2023-02-15T01:35:09;39.28;;;22.92;;
61085;SDS011;46967;48.876;2.136;2023-02-15T01:37:35;39.72;;;22.20;;
61085;SDS011;46967;48.876;2.136;2023-02-15T01:40:02;37.20;;;22.55;;
61085;SDS011;46967;48.876;2.136;2023-02-15T01:42:29;36.17;;;21.92;;
61085;SDS011;46967;48.876;2.136;2023-02-15T01:44:56;38.40;;;22.25;;
61085;SDS011;46967;48.876;2.136;2023-02-15T01:47:25;37.65;;;21.08;;
61085;SDS011;46967;48.876;2.136;2023-02-15T01:52:34;39.65;;;21.58;;
61085;SDS011;46967;48.876;2.136;2023-02-15T01:55:04;35.75;;;21.15;;
61085;SDS011;46967;48.876;2.136;2023-02-15T01:57:31;35.15;;;21.65;;
61085;SDS011;46967;48.876;2.136;2023-02-15T01:59:58;34.17;;;21.33;;
61085;SDS011;46967;48.876;2.136;2023-02-15T02:02:26;41.83;;;21.35;;
61085;SDS011;46967;48.876;2.136;2023-02-15T02:04:54;39.83;;;21.10;;
61085;SDS011;46967;48.876;2.136;2023-02-15T02:07:23;36.17;;;21.25;;
61085;SDS011;46967;48.876;2.136;2023-02-15T02:09:53;39.72;;;20.27;;
61085;SDS011;46967;48.876;2.136;2023-02-15T02:12:19;37.22;;;22.33;;
61085;SDS011;46967;48.876;2.136;2023-02-15T02:14:47;37.45;;;20.58;;
61085;SDS011;46967;48.876;2.136;2023-02-15T02:31:55;33.58;;;19.23;;
61085;SDS011;46967;48.876;2.136;2023-02-15T02:35:04;37.22;;;20.55;;
61085;SDS011;46967;48.876;2.136;2023-02-15T02:40:40;36.35;;;20.73;;
61085;SDS011;46967;48.876;2.136;2023-02-15T02:43:25;33.47;;;19.70;;
61085;SDS011;46967;48.876;2.136;2023-02-15T02:46:02;33.08;;;20.02;;
61085;SDS011;46967;48.876;2.136;2023-02-15T02:48:35;36.63;;;20.65;;
61085;SDS011;46967;48.876;2.136;2023-02-15T02:51:02;32.25;;;19.60;;
61085;SDS011;46967;48.876;2.136;2023-02-15T02:53:27;34.53;;;20.25;;
61085;SDS011;46967;48.876;2.136;2023-02-15T02:55:57;32.40;;;19.52;;
61085;SDS011;46967;48.876;2.136;2023-02-15T02:58:31;34.90;;;20.05;;
61085;SDS011;46967;48.876;2.136;2023-02-15T03:01:20;34.17;;;19.25;;
61085;SDS011;46967;48.876;2.136;2023-02-15T03:03:56;34.22;;;18.73;;
61085;SDS011;46967;48.876;2.136;2023-02-15T03:06:46;33.35;;;19.27;;
61085;SDS011;46967;48.876;2.136;2023-02-15T03:12:06;32.23;;;18.53;;
61085;SDS011;46967;48.876;2.136;2023-02-15T03:14:33;33.38;;;19.42;;
61085;SDS011;46967;48.876;2.136;2023-02-15T03:16:59;35.05;;;19.08;;
61085;SDS011;46967;48.876;2.136;2023-02-15T03:19:27;33.78;;;18.63;;
61085;SDS011;46967;48.876;2.136;2023-02-15T03:21:56;36.70;;;20.13;;
61085;SDS011;46967;48.876;2.136;2023-02-15T03:24:34;31.38;;;18.88;;
61085;SDS011;46967;48.876;2.136;2023-02-15T03:27:07;36.30;;;19.92;;
61085;SDS011;46967;48.876;2.136;2023-02-15T03:29:42;36.42;;;18.73;;
61085;SDS011;46967;48.876;2.136;2023-02-15T03:32:11;31.23;;;18.77;;
61085;SDS011;46967;48.876;2.136;2023-02-15T03:34:40;33.10;;;19.08;;
61085;SDS011;46967;48.876;2.136;2023-02-15T03:39:38;34.00;;;18.65;;
61085;SDS011;46967;48.876;2.136;2023-02-15T03:44:40;32.88;;;18.67;;
61085;SDS011;46967;48.876;2.136;2023-02-15T03:47:19;32.03;;;18.42;;
61085;SDS011;46967;48.876;2.136;2023-02-15T03:49:57;32.17;;;16.98;;
61085;SDS011;46967;48.876;2.136;2023-02-15T03:52:27;31.88;;;17.83;;
61085;SDS011;46967;48.876;2.136;2023-02-15T03:54:54;32.55;;;18.33;;
61085;SDS011;46967;48.876;2.136;2023-02-15T04:03:09;31.65;;;18.08;;
61085;SDS011;46967;48.876;2.136;2023-02-15T04:05:36;31.88;;;17.90;;
61085;SDS011;46967;48.876;2.136;2023-02-15T04:08:02;37.28;;;19.02;;
61085;SDS011;46967;48.876;2.136;2023-02-15T04:10:27;35.10;;;19.55;;
61085;SDS011;46967;48.876;2.136;2023-02-15T04:13:11;29.52;;;18.05;;
61085;SDS011;46967;48.876;2.136;2023-02-15T04:15:36;36.58;;;19.00;;
61085;SDS011;46967;48.876;2.136;2023-02-15T04:18:20;31.75;;;16.92;;
61085;SDS011;46967;48.876;2.136;2023-02-15T04:20:46;30.38;;;17.45;;
61085;SDS011;46967;48.876;2.136;2023-02-15T04:23:30;31.70;;;18.15;;
61085;SDS011;46967;48.876;2.136;2023-02-15T04:26:15;33.33;;;19.10;;
61085;SDS011;46967;48.876;2.136;2023-02-15T04:28:41;30.80;;;17.67;;
61085;SDS011;46967;48.876;2.136;2023-02-15T04:31:06;32.33;;;18.38;;
61085;SDS011;46967;48.876;2.136;2023-02-15T04:33:31;35.67;;;19.90;;
61085;SDS011;46967;48.876;2.136;2023-02-15T04:35:57;32.10;;;18.45;;
61085;SDS011;46967;48.876;2.136;2023-02-15T04:38:22;33.92;;;16.88;;
61085;SDS011;46967;48.876;2.136;2023-02-15T04:40:51;29.48;;;17.25;;
61085;SDS011;46967;48.876;2.136;2023-02-15T04:43:18;35.78;;;19.20;;
61085;SDS011;46967;48.876;2.136;2023-02-15T04:45:47;33.25;;;18.02;;
61085;SDS011;46967;48.876;2.136;2023-02-15T04:48:15;31.40;;;18.40;;
61085;SDS011;46967;48.876;2.136;2023-02-15T04:50:41;35.17;;;18.75;;
61085;SDS011;46967;48.876;2.136;2023-02-15T04:53:06;32.22;;;17.85;;
61085;SDS011;46967;48.876;2.136;2023-02-15T04:55:31;33.95;;;18.13;;
61085;SDS011;46967;48.876;2.136;2023-02-15T04:57:57;34.03;;;18.55;;
61085;SDS011;46967;48.876;2.136;2023-02-15T05:00:22;34.28;;;17.95;;
61085;SDS011;46967;48.876;2.136;2023-02-15T05:02:47;35.20;;;18.98;;
61085;SDS011;46967;48.876;2.136;2023-02-15T05:05:13;30.70;;;18.35;;
61085;SDS011;46967;48.876;2.136;2023-02-15T05:07:40;32.80;;;17.58;;
61085;SDS011;46967;48.876;2.136;2023-02-15T05:10:05;35.47;;;18.95;;
61085;SDS011;46967;48.876;2.136;2023-02-15T05:12:31;31.25;;;17.85;;
61085;SDS011;46967;48.876;2.136;2023-02-15T05:14:56;29.60;;;16.65;;
61085;SDS011;46967;48.876;2.136;2023-02-15T05:17:21;31.05;;;18.27;;
61085;SDS011;46967;48.876;2.136;2023-02-15T05:19:47;32.22;;;18.35;;
61085;SDS011;46967;48.876;2.136;2023-02-15T05:22:12;29.98;;;18.13;;
61085;SDS011;46967;48.876;2.136;2023-02-15T05:24:37;34.85;;;18.65;;
61085;SDS011;46967;48.876;2.136;2023-02-15T05:27:21;30.30;;;17.20;;
61085;SDS011;46967;48.876;2.136;2023-02-15T05:30:05;28.38;;;16.65;;
61085;SDS011;46967;48.876;2.136;2023-02-15T05:32:36;32.08;;;18.55;;
61085;SDS011;46967;48.876;2.136;2023-02-15T05:35:02;37.33;;;17.92;;
61085;SDS011;46967;48.876;2.136;2023-02-15T05:37:27;29.98;;;17.23;;
61085;SDS011;46967;48.876;2.136;2023-02-15T05:39:53;29.63;;;17.15;;
61085;SDS011;46967;48.876;2.136;2023-02-15T05:42:18;31.60;;;17.50;;
61085;SDS011;46967;48.876;2.136;2023-02-15T05:44:43;32.85;;;18.08;;
61085;SDS011;46967;48.876;2.136;2023-02-15T05:47:09;31.58;;;18.10;;
61085;SDS011;46967;48.876;2.136;2023-02-15T05:49:34;30.80;;;17.92;;
61085;SDS011;46967;48.876;2.136;2023-02-15T05:51:59;31.25;;;18.98;;
61085;SDS011;46967;48.876;2.136;2023-02-15T05:54:25;33.65;;;18.23;;
61085;SDS011;46967;48.876;2.136;2023-02-15T05:56:50;34.75;;;19.52;;
61085;SDS011;46967;48.876;2.136;2023-02-15T05:59:15;35.97;;;18.40;;
61085;SDS011;46967;48.876;2.136;2023-02-15T06:01:41;32.33;;;18.45;;
61085;SDS011;46967;48.876;2.136;2023-02-15T06:04:06;34.38;;;19.23;;
61085;SDS011;46967;48.876;2.136;2023-02-15T06:06:31;33.70;;;18.63;;
61085;SDS011;46967;48.876;2.136;2023-02-15T06:08:57;35.65;;;19.08;;
61085;SDS011;46967;48.876;2.136;2023-02-15T06:11:22;33.45;;;18.40;;
61085;SDS011;46967;48.876;2.136;2023-02-15T06:13:48;34.38;;;18.33;;
61085;SDS011;46967;48.876;2.136;2023-02-15T06:16:13;32.03;;;18.52;;
61085;SDS011;46967;48.876;2.136;2023-02-15T06:18:40;31.33;;;17.38;;
61085;SDS011;46967;48.876;2.136;2023-02-15T06:21:06;31.08;;;17.95;;
61085;SDS011;46967;48.876;2.136;2023-02-15T06:23:31;33.88;;;18.70;;
61085;SDS011;46967;48.876;2.136;2023-02-15T06:25:56;33.42;;;17.63;;
61085;SDS011;46967;48.876;2.136;2023-02-15T06:28:22;37.35;;;18.67;;
61085;SDS011;46967;48.876;2.136;2023-02-15T06:30:47;35.20;;;18.60;;
61085;SDS011;46967;48.876;2.136;2023-02-15T06:33:13;37.17;;;18.67;;
61085;SDS011;46967;48.876;2.136;2023-02-15T06:35:38;40.08;;;19.55;;
61085;SDS011;46967;48.876;2.136;2023-02-15T06:38:03;33.50;;;19.17;;
61085;SDS011;46967;48.876;2.136;2023-02-15T06:40:29;34.45;;;19.80;;
61085;SDS011;46967;48.876;2.136;2023-02-15T06:42:54;39.53;;;20.00;;
61085;SDS011;46967;48.876;2.136;2023-02-15T06:45:19;34.83;;;19.38;;
61085;SDS011;46967;48.876;2.136;2023-02-15T06:47:45;33.45;;;18.85;;
61085;SDS011;46967;48.876;2.136;2023-02-15T06:50:10;32.83;;;18.98;;
61085;SDS011;46967;48.876;2.136;2023-02-15T06:52:37;31.98;;;18.80;;
61085;SDS011;46967;48.876;2.136;2023-02-15T06:55:02;33.17;;;17.88;;
61085;SDS011;46967;48.876;2.136;2023-02-15T06:57:28;37.40;;;18.77;;
61085;SDS011;46967;48.876;2.136;2023-02-15T06:59:53;33.88;;;18.08;;
61085;SDS011;46967;48.876;2.136;2023-02-15T07:02:18;40.17;;;19.52;;
61085;SDS011;46967;48.876;2.136;2023-02-15T07:04:44;36.28;;;20.67;;
61085;SDS011;46967;48.876;2.136;2023-02-15T07:07:09;31.30;;;19.02;;
61085;SDS011;46967;48.876;2.136;2023-02-15T07:09:36;33.35;;;19.80;;
61085;SDS011;46967;48.876;2.136;2023-02-15T07:12:01;34.78;;;20.52;;
61085;SDS011;46967;48.876;2.136;2023-02-15T07:14:45;35.65;;;20.70;;
61085;SDS011;46967;48.876;2.136;2023-02-15T07:17:11;39.05;;;21.05;;
61085;SDS011;46967;48.876;2.136;2023-02-15T07:19:36;39.42;;;21.23;;
61085;SDS011;46967;48.876;2.136;2023-02-15T07:22:01;36.67;;;21.13;;
61085;SDS011;46967;48.876;2.136;2023-02-15T07:24:28;34.33;;;20.70;;
61085;SDS011;46967;48.876;2.136;2023-02-15T07:26:54;39.78;;;20.45;;
61085;SDS011;46967;48.876;2.136;2023-02-15T07:29:19;45.47;;;21.63;;
61085;SDS011;46967;48.876;2.136;2023-02-15T07:31:44;37.67;;;20.98;;
61085;SDS011;46967;48.876;2.136;2023-02-15T07:34:10;36.15;;;21.90;;
61085;SDS011;46967;48.876;2.136;2023-02-15T07:36:36;45.45;;;21.60;;
61085;SDS011;46967;48.876;2.136;2023-02-15T07:39:01;45.53;;;21.50;;
61085;SDS011;46967;48.876;2.136;2023-02-15T07:41:27;36.33;;;21.13;;
61085;SDS011;46967;48.876;2.136;2023-02-15T07:43:52;38.13;;;21.70;;
61085;SDS011;46967;48.876;2.136;2023-02-15T07:46:17;38.15;;;21.42;;
61085;SDS011;46967;48.876;2.136;2023-02-15T07:48:43;44.60;;;23.55;;
61085;SDS011;46967;48.876;2.136;2023-02-15T07:51:09;44.92;;;23.67;;
61085;SDS011;46967;48.876;2.136;2023-02-15T07:53:36;49.33;;;25.02;;
61085;SDS011;46967;48.876;2.136;2023-02-15T07:56:03;45.95;;;24.38;;
61085;SDS011;46967;48.876;2.136;2023-02-15T07:58:31;43.03;;;24.77;;
61085;SDS011;46967;48.876;2.136;2023-02-15T08:01:16;49.15;;;24.77;;
61085;SDS011;46967;48.876;2.136;2023-02-15T08:03:49;41.05;;;24.58;;
61085;SDS011;46967;48.876;2.136;2023-02-15T08:06:15;40.92;;;24.40;;
61085;SDS011;46967;48.876;2.136;2023-02-15T08:08:40;41.90;;;24.40;;
61085;SDS011;46967;48.876;2.136;2023-02-15T08:14:07;41.90;;;23.70;;
61085;SDS011;46967;48.876;2.136;2023-02-15T08:18:59;42.47;;;24.95;;
61085;SDS011;46967;48.876;2.136;2023-02-15T08:21:27;43.15;;;25.02;;
61085;SDS011;46967;48.876;2.136;2023-02-15T08:23:53;42.65;;;24.73;;
61085;SDS011;46967;48.876;2.136;2023-02-15T08:26:19;41.90;;;24.25;;
61085;SDS011;46967;48.876;2.136;2023-02-15T08:28:45;44.03;;;24.45;;
61085;SDS011;46967;48.876;2.136;2023-02-15T08:31:11;40.55;;;25.17;;
61085;SDS011;46967;48.876;2.136;2023-02-15T08:33:39;43.35;;;24.48;;
61085;SDS011;46967;48.876;2.136;2023-02-15T08:36:10;49.92;;;28.23;;
61085;SDS011;46967;48.876;2.136;2023-02-15T08:38:38;52.60;;;30.08;;
61085;SDS011;46967;48.876;2.136;2023-02-15T08:43:41;43.08;;;26.95;;
61085;SDS011;46967;48.876;2.136;2023-02-15T08:46:07;50.05;;;27.27;;
61085;SDS011;46967;48.876;2.136;2023-02-15T08:48:35;49.60;;;27.92;;
61085;SDS011;46967;48.876;2.136;2023-02-15T08:51:04;52.42;;;28.00;;
61085;SDS011;46967;48.876;2.136;2023-02-15T08:53:38;47.25;;;27.98;;
61085;SDS011;46967;48.876;2.136;2023-02-15T08:56:05;49.63;;;26.48;;
61085;SDS011;46967;48.876;2.136;2023-02-15T08:58:31;45.38;;;26.90;;
61085;SDS011;46967;48.876;2.136;2023-02-15T09:00:56;50.72;;;28.02;;
61085;SDS011;46967;48.876;2.136;2023-02-15T09:03:22;51.97;;;29.98;;
61085;SDS011;46967;48.876;2.136;2023-02-15T09:05:48;50.85;;;28.77;;
61085;SDS011;46967;48.876;2.136;2023-02-15T09:08:14;56.95;;;27.80;;
61085;SDS011;46967;48.876;2.136;2023-02-15T09:10:39;51.35;;;28.90;;
61085;SDS011;46967;48.876;2.136;2023-02-15T09:13:04;52.75;;;28.65;;
61085;SDS011;46967;48.876;2.136;2023-02-15T09:15:30;60.40;;;29.13;;
61085;SDS011;46967;48.876;2.136;2023-02-15T09:17:55;56.83;;;30.52;;
61085;SDS011;46967;48.876;2.136;2023-02-15T09:20:20;61.05;;;31.15;;
61085;SDS011;46967;48.876;2.136;2023-02-15T09:22:46;64.03;;;32.08;;
61085;SDS011;46967;48.876;2.136;2023-02-15T09:25:12;59.03;;;31.42;;
61085;SDS011;46967;48.876;2.136;2023-02-15T09:27:38;55.00;;;29.92;;
61085;SDS011;46967;48.876;2.136;2023-02-15T09:30:04;56.20;;;30.63;;
61085;SDS011;46967;48.876;2.136;2023-02-15T09:32:30;53.90;;;30.67;;
61085;SDS011;46967;48.876;2.136;2023-02-15T09:34:56;53.97;;;29.40;;
61085;SDS011;46967;48.876;2.136;2023-02-15T09:37:21;58.10;;;29.73;;
61085;SDS011;46967;48.876;2.136;2023-02-15T09:39:46;50.80;;;29.23;;
61085;SDS011;46967;48.876;2.136;2023-02-15T09:58:10;54.38;;;31.20;;
61085;SDS011;46967;48.876;2.136;2023-02-15T10:00:47;55.20;;;32.47;;
61085;SDS011;46967;48.876;2.136;2023-02-15T10:03:39;53.88;;;32.88;;
61085;SDS011;46967;48.876;2.136;2023-02-15T10:22:38;60.13;;;33.45;;
61085;SDS011;46967;48.876;2.136;2023-02-15T10:27:49;56.00;;;34.63;;
61085;SDS011;46967;48.876;2.136;2023-02-15T10:30:20;70.75;;;39.53;;
61085;SDS011;46967;48.876;2.136;2023-02-15T10:33:10;117.60;;;46.95;;
61085;SDS011;46967;48.876;2.136;2023-02-15T10:35:52;92.35;;;42.65;;
61085;SDS011;46967;48.876;2.136;2023-02-15T10:44:31;60.20;;;34.60;;
61085;SDS011;46967;48.876;2.136;2023-02-15T11:01:30;64.00;;;37.55;;
61085;SDS011;46967;48.876;2.136;2023-02-15T11:06:59;59.42;;;37.05;;
61085;SDS011;46967;48.876;2.136;2023-02-15T11:09:33;60.92;;;35.50;;
61085;SDS011;46967;48.876;2.136;2023-02-15T11:12:13;58.08;;;35.63;;
61085;SDS011;46967;48.876;2.136;2023-02-15T11:14:50;64.80;;;36.20;;
61085;SDS011;46967;48.876;2.136;2023-02-15T11:17:27;62.65;;;36.95;;
61085;SDS011;46967;48.876;2.136;2023-02-15T11:20:17;61.47;;;37.70;;
61085;SDS011;46967;48.876;2.136;2023-02-15T11:22:54;67.40;;;36.60;;
61085;SDS011;46967;48.876;2.136;2023-02-15T11:25:40;63.33;;;38.67;;
61085;SDS011;46967;48.876;2.136;2023-02-15T11:28:09;67.97;;;37.83;;
61085;SDS011;46967;48.876;2.136;2023-02-15T11:30:45;62.20;;;37.83;;
61085;SDS011;46967;48.876;2.136;2023-02-15T11:33:18;67.78;;;37.70;;
61085;SDS011;46967;48.876;2.136;2023-02-15T11:35:49;60.50;;;36.28;;
61085;SDS011;46967;48.876;2.136;2023-02-15T11:38:31;62.80;;;36.42;;
61085;SDS011;46967;48.876;2.136;2023-02-15T11:41:02;62.15;;;37.63;;
61085;SDS011;46967;48.876;2.136;2023-02-15T11:46:02;64.28;;;37.65;;
61085;SDS011;46967;48.876;2.136;2023-02-15T11:48:28;66.90;;;38.45;;
61085;SDS011;46967;48.876;2.136;2023-02-15T11:50:55;58.90;;;37.10;;
61085;SDS011;46967;48.876;2.136;2023-02-15T11:53:21;61.67;;;37.13;;
61085;SDS011;46967;48.876;2.136;2023-02-15T11:55:52;57.38;;;37.05;;
61085;SDS011;46967;48.876;2.136;2023-02-15T12:00:47;58.33;;;36.25;;
61085;SDS011;46967;48.876;2.136;2023-02-15T12:03:19;57.80;;;36.42;;
61085;SDS011;46967;48.876;2.136;2023-02-15T12:05:47;56.08;;;35.80;;
61085;SDS011;46967;48.876;2.136;2023-02-15T12:08:21;65.25;;;34.90;;
61085;SDS011;46967;48.876;2.136;2023-02-15T12:13:53;54.22;;;34.50;;
61085;SDS011;46967;48.876;2.136;2023-02-15T12:16:27;56.30;;;32.47;;
61085;SDS011;46967;48.876;2.136;2023-02-15T12:18:57;46.50;;;30.58;;
61085;SDS011;46967;48.876;2.136;2023-02-15T12:21:29;50.50;;;31.55;;
61085;SDS011;46967;48.876;2.136;2023-02-15T12:24:00;50.17;;;30.88;;
61085;SDS011;46967;48.876;2.136;2023-02-15T12:26:32;52.55;;;31.83;;
61085;SDS011;46967;48.876;2.136;2023-02-15T12:29:22;50.55;;;31.10;;
61085;SDS011;46967;48.876;2.136;2023-02-15T12:31:49;43.30;;;28.75;;
61085;SDS011;46967;48.876;2.136;2023-02-15T12:34:21;50.25;;;31.52;;
61085;SDS011;46967;48.876;2.136;2023-02-15T12:36:51;48.42;;;29.17;;
61085;SDS011;46967;48.876;2.136;2023-02-15T12:39:25;49.28;;;29.05;;
61085;SDS011;46967;48.876;2.136;2023-02-15T12:44:25;43.28;;;27.65;;
61085;SDS011;46967;48.876;2.136;2023-02-15T12:47:06;43.70;;;26.67;;
61085;SDS011;46967;48.876;2.136;2023-02-15T12:49:43;40.53;;;25.33;;
61085;SDS011;46967;48.876;2.136;2023-02-15T12:54:48;39.33;;;26.17;;
61085;SDS011;46967;48.876;2.136;2023-02-15T12:57:27;42.38;;;25.88;;
61085;SDS011;46967;48.876;2.136;2023-02-15T12:59:56;37.78;;;25.35;;
61085;SDS011;46967;48.876;2.136;2023-02-15T13:02:24;39.22;;;21.80;;
61085;SDS011;46967;48.876;2.136;2023-02-15T13:08:01;34.30;;;21.65;;
61085;SDS011;46967;48.876;2.136;2023-02-15T13:10:39;38.35;;;22.63;;
61085;SDS011;46967;48.876;2.136;2023-02-15T13:13:18;34.67;;;20.65;;
61085;SDS011;46967;48.876;2.136;2023-02-15T13:15:48;30.00;;;16.73;;
61085;SDS011;46967;48.876;2.136;2023-02-15T13:18:18;31.60;;;13.95;;
61085;SDS011;46967;48.876;2.136;2023-02-15T13:20:54;20.00;;;11.98;;
61085;SDS011;46967;48.876;2.136;2023-02-15T13:23:25;20.45;;;11.75;;
61085;SDS011;46967;48.876;2.136;2023-02-15T13:25:52;19.42;;;10.88;;
61085;SDS011;46967;48.876;2.136;2023-02-15T13:28:21;20.80;;;12.18;;
61085;SDS011;46967;48.876;2.136;2023-02-15T13:30:49;19.60;;;11.60;;
61085;SDS011;46967;48.876;2.136;2023-02-15T13:33:23;18.27;;;11.55;;
61085;SDS011;46967;48.876;2.136;2023-02-15T13:38:39;23.08;;;11.18;;
61085;SDS011;46967;48.876;2.136;2023-02-15T13:49:47;24.67;;;13.63;;
61085;SDS011;46967;48.876;2.136;2023-02-15T13:52:32;21.27;;;13.05;;
61085;SDS011;46967;48.876;2.136;2023-02-15T14:00:52;17.33;;;10.82;;
61085;SDS011;46967;48.876;2.136;2023-02-15T14:08:50;19.25;;;11.75;;
61085;SDS011;46967;48.876;2.136;2023-02-15T14:11:38;19.40;;;11.63;;
61085;SDS011;46967;48.876;2.136;2023-02-15T14:19:35;24.00;;;11.52;;
61085;SDS011;46967;48.876;2.136;2023-02-15T14:22:25;18.35;;;11.23;;
61085;SDS011;46967;48.876;2.136;2023-02-15T14:24:58;15.95;;;10.68;;
61085;SDS011;46967;48.876;2.136;2023-02-15T14:30:15;26.95;;;15.57;;
61085;SDS011;46967;48.876;2.136;2023-02-15T14:32:46;36.05;;;21.80;;
61085;SDS011;46967;48.876;2.136;2023-02-15T14:40:37;42.58;;;25.10;;
61085;SDS011;46967;48.876;2.136;2023-02-15T14:43:48;45.92;;;27.38;;
61085;SDS011;46967;48.876;2.136;2023-02-15T14:46:24;48.92;;;28.65;;
61085;SDS011;46967;48.876;2.136;2023-02-15T14:48:56;50.13;;;30.15;;
61085;SDS011;46967;48.876;2.136;2023-02-15T14:54:11;50.38;;;31.35;;
61085;SDS011;46967;48.876;2.136;2023-02-15T14:59:25;53.60;;;29.70;;
61085;SDS011;46967;48.876;2.136;2023-02-15T15:02:09;50.63;;;30.80;;
61085;SDS011;46967;48.876;2.136;2023-02-15T15:04:41;49.92;;;31.48;;
61085;SDS011;46967;48.876;2.136;2023-02-15T15:07:26;50.70;;;31.48;;
61085;SDS011;46967;48.876;2.136;2023-02-15T15:15:00;48.85;;;31.42;;
61085;SDS011;46967;48.876;2.136;2023-02-15T15:42:22;18.52;;;11.05;;
61085;SDS011;46967;48.876;2.136;2023-02-15T15:48:19;17.23;;;11.20;;
61085;SDS011;46967;48.876;2.136;2023-02-15T15:50:52;18.45;;;11.80;;
61085;SDS011;46967;48.876;2.136;2023-02-15T15:53:22;19.45;;;10.65;;
61085;SDS011;46967;48.876;2.136;2023-02-15T15:55:50;23.85;;;12.23;;
61085;SDS011;46967;48.876;2.136;2023-02-15T15:58:20;17.58;;;11.60;;
61085;SDS011;46967;48.876;2.136;2023-02-15T16:00:47;18.42;;;10.93;;
61085;SDS011;46967;48.876;2.136;2023-02-15T16:03:25;17.37;;;10.67;;
61085;SDS011;46967;48.876;2.136;2023-02-15T16:05:52;14.63;;;10.00;;
61085;SDS011;46967;48.876;2.136;2023-02-15T16:10:57;15.20;;;9.45;;
61085;SDS011;46967;48.876;2.136;2023-02-15T16:13:23;15.10;;;7.15;;
61085;SDS011;46967;48.876;2.136;2023-02-15T16:15:51;10.63;;;7.35;;
61085;SDS011;46967;48.876;2.136;2023-02-15T16:18:19;12.90;;;7.18;;
61085;SDS011;46967;48.876;2.136;2023-02-15T16:21:00;12.65;;;7.40;;
61085;SDS011;46967;48.876;2.136;2023-02-15T16:28:28;12.27;;;6.97;;
61085;SDS011;46967;48.876;2.136;2023-02-15T16:31:07;12.13;;;7.25;;
61085;SDS011;46967;48.876;2.136;2023-02-15T16:33:41;13.07;;;7.10;;
61085;SDS011;46967;48.876;2.136;2023-02-15T16:36:11;11.45;;;6.85;;
61085;SDS011;46967;48.876;2.136;2023-02-15T16:41:12;12.82;;;6.63;;
61085;SDS011;46967;48.876;2.136;2023-02-15T16:43:40;11.23;;;6.93;;
61085;SDS011;46967;48.876;2.136;2023-02-15T16:46:10;12.63;;;6.68;;
61085;SDS011;46967;48.876;2.136;2023-02-15T16:48:45;12.50;;;6.78;;
61085;SDS011;46967;48.876;2.136;2023-02-15T16:51:27;11.60;;;6.47;;
61085;SDS011;46967;48.876;2.136;2023-02-15T16:53:55;10.95;;;6.25;;
61085;SDS011;46967;48.876;2.136;2023-02-15T16:56:26;8.77;;;5.90;;
61085;SDS011;46967;48.876;2.136;2023-02-15T16:58:55;8.52;;;5.75;;
61085;SDS011;46967;48.876;2.136;2023-02-15T17:01:23;12.43;;;5.40;;
61085;SDS011;46967;48.876;2.136;2023-02-15T17:03:52;9.52;;;5.40;;
61085;SDS011;46967;48.876;2.136;2023-02-15T17:06:37;9.57;;;5.82;;
61085;SDS011;46967;48.876;2.136;2023-02-15T17:09:03;10.98;;;5.82;;
61085;SDS011;46967;48.876;2.136;2023-02-15T17:11:41;10.07;;;6.03;;
61085;SDS011;46967;48.876;2.136;2023-02-15T17:16:40;9.02;;;5.43;;
61085;SDS011;46967;48.876;2.136;2023-02-15T17:19:13;5.93;;;4.40;;
61085;SDS011;46967;48.876;2.136;2023-02-15T17:21:54;14.13;;;5.68;;
61085;SDS011;46967;48.876;2.136;2023-02-15T17:24:28;9.32;;;5.45;;
61085;SDS011;46967;48.876;2.136;2023-02-15T17:26:56;8.90;;;4.95;;
61085;SDS011;46967;48.876;2.136;2023-02-15T17:29:39;5.75;;;4.40;;
61085;SDS011;46967;48.876;2.136;2023-02-15T17:32:13;7.35;;;5.07;;
61085;SDS011;46967;48.876;2.136;2023-02-15T17:37:25;8.75;;;5.38;;
61085;SDS011;46967;48.876;2.136;2023-02-15T17:39:57;9.15;;;5.60;;
61085;SDS011;46967;48.876;2.136;2023-02-15T17:42:24;13.80;;;6.03;;
61085;SDS011;46967;48.876;2.136;2023-02-15T17:44:49;8.02;;;4.88;;
61085;SDS011;46967;48.876;2.136;2023-02-15T17:47:16;14.80;;;7.30;;
61085;SDS011;46967;48.876;2.136;2023-02-15T17:49:43;12.88;;;7.78;;
61085;SDS011;46967;48.876;2.136;2023-02-15T17:52:12;17.17;;;8.95;;
61085;SDS011;46967;48.876;2.136;2023-02-15T17:54:41;14.13;;;9.20;;
61085;SDS011;46967;48.876;2.136;2023-02-15T17:57:25;13.55;;;8.02;;
61085;SDS011;46967;48.876;2.136;2023-02-15T17:59:51;14.98;;;7.95;;
61085;SDS011;46967;48.876;2.136;2023-02-15T18:02:35;13.05;;;7.50;;
61085;SDS011;46967;48.876;2.136;2023-02-15T18:05:19;10.68;;;6.35;;